sensor_id;sensor_type;location;lat;lon;timestamp;P1;durP1;ratioP1;P2;durP2;ratioP2
65469;SDS011;52067;50.710;14.492;2023-05-29T00:00:31;7.78;;;3.80;;
65469;SDS011;52067;50.710;14.492;2023-05-29T00:02:57;7.68;;;3.70;;
65469;SDS011;52067;50.710;14.492;2023-05-29T00:05:23;8.77;;;4.15;;
65469;SDS011;52067;50.710;14.492;2023-05-29T00:07:49;7.00;;;3.83;;
65469;SDS011;52067;50.710;14.492;2023-05-29T00:10:15;7.90;;;4.10;;
65469;SDS011;52067;50.710;14.492;2023-05-29T00:12:41;7.35;;;3.72;;
65469;SDS011;52067;50.710;14.492;2023-05-29T00:15:08;6.18;;;3.30;;
65469;SDS011;52067;50.710;14.492;2023-05-29T00:17:35;6.30;;;3.22;;
65469;SDS011;52067;50.710;14.492;2023-05-29T00:20:00;8.05;;;2.83;;
65469;SDS011;52067;50.710;14.492;2023-05-29T00:22:28;5.82;;;3.03;;
65469;SDS011;52067;50.710;14.492;2023-05-29T00:24:53;7.93;;;4.07;;
65469;SDS011;52067;50.710;14.492;2023-05-29T00:27:19;11.60;;;5.05;;
65469;SDS011;52067;50.710;14.492;2023-05-29T00:29:45;11.10;;;4.05;;
65469;SDS011;52067;50.710;14.492;2023-05-29T00:32:10;8.57;;;3.40;;
65469;SDS011;52067;50.710;14.492;2023-05-29T00:34:36;5.95;;;3.10;;
65469;SDS011;52067;50.710;14.492;2023-05-29T00:37:01;5.80;;;3.08;;
65469;SDS011;52067;50.710;14.492;2023-05-29T00:39:27;8.35;;;3.75;;
65469;SDS011;52067;50.710;14.492;2023-05-29T00:41:53;11.85;;;4.25;;
65469;SDS011;52067;50.710;14.492;2023-05-29T00:44:19;9.45;;;4.50;;
65469;SDS011;52067;50.710;14.492;2023-05-29T00:46:45;6.57;;;3.55;;
65469;SDS011;52067;50.710;14.492;2023-05-29T00:49:12;10.30;;;5.25;;
65469;SDS011;52067;50.710;14.492;2023-05-29T00:51:38;11.32;;;5.25;;
65469;SDS011;52067;50.710;14.492;2023-05-29T00:54:05;10.02;;;4.63;;
65469;SDS011;52067;50.710;14.492;2023-05-29T00:56:33;15.48;;;5.05;;
65469;SDS011;52067;50.710;14.492;2023-05-29T00:59:00;10.45;;;5.68;;
65469;SDS011;52067;50.710;14.492;2023-05-29T01:01:25;14.00;;;6.15;;
65469;SDS011;52067;50.710;14.492;2023-05-29T01:03:52;17.52;;;7.50;;
65469;SDS011;52067;50.710;14.492;2023-05-29T01:06:22;20.48;;;6.88;;
65469;SDS011;52067;50.710;14.492;2023-05-29T01:08:48;14.45;;;7.13;;
65469;SDS011;52067;50.710;14.492;2023-05-29T01:11:36;13.45;;;8.07;;
65469;SDS011;52067;50.710;14.492;2023-05-29T01:14:05;11.43;;;5.78;;
65469;SDS011;52067;50.710;14.492;2023-05-29T01:16:48;13.25;;;7.50;;
65469;SDS011;52067;50.710;14.492;2023-05-29T01:19:29;13.00;;;6.85;;
65469;SDS011;52067;50.710;14.492;2023-05-29T01:27:56;7.38;;;3.80;;
65469;SDS011;52067;50.710;14.492;2023-05-29T01:30:25;8.15;;;4.40;;
65469;SDS011;52067;50.710;14.492;2023-05-29T01:32:55;9.55;;;4.78;;
65469;SDS011;52067;50.710;14.492;2023-05-29T01:35:21;12.07;;;7.90;;
65469;SDS011;52067;50.710;14.492;2023-05-29T01:37:47;8.23;;;4.72;;
65469;SDS011;52067;50.710;14.492;2023-05-29T01:40:12;7.43;;;4.53;;
65469;SDS011;52067;50.710;14.492;2023-05-29T01:42:38;10.55;;;4.80;;
65469;SDS011;52067;50.710;14.492;2023-05-29T01:45:05;9.43;;;6.05;;
65469;SDS011;52067;50.710;14.492;2023-05-29T01:47:31;12.73;;;5.85;;
65469;SDS011;52067;50.710;14.492;2023-05-29T01:49:57;10.88;;;6.13;;
65469;SDS011;52067;50.710;14.492;2023-05-29T01:52:23;12.75;;;7.07;;
65469;SDS011;52067;50.710;14.492;2023-05-29T01:54:48;8.70;;;6.30;;
65469;SDS011;52067;50.710;14.492;2023-05-29T01:57:14;12.32;;;5.28;;
65469;SDS011;52067;50.710;14.492;2023-05-29T01:59:39;7.65;;;3.50;;
65469;SDS011;52067;50.710;14.492;2023-05-29T02:02:09;7.82;;;4.90;;
65469;SDS011;52067;50.710;14.492;2023-05-29T02:04:36;6.85;;;3.25;;
65469;SDS011;52067;50.710;14.492;2023-05-29T02:07:02;10.45;;;4.75;;
65469;SDS011;52067;50.710;14.492;2023-05-29T02:09:27;6.30;;;4.10;;
65469;SDS011;52067;50.710;14.492;2023-05-29T02:11:53;8.07;;;3.35;;
65469;SDS011;52067;50.710;14.492;2023-05-29T02:14:18;5.68;;;3.72;;
65469;SDS011;52067;50.710;14.492;2023-05-29T02:16:43;8.02;;;3.65;;
65469;SDS011;52067;50.710;14.492;2023-05-29T02:19:10;5.97;;;3.30;;
65469;SDS011;52067;50.710;14.492;2023-05-29T02:21:38;8.65;;;3.22;;
65469;SDS011;52067;50.710;14.492;2023-05-29T02:24:05;8.15;;;3.50;;
65469;SDS011;52067;50.710;14.492;2023-05-29T02:26:32;5.63;;;3.10;;
65469;SDS011;52067;50.710;14.492;2023-05-29T02:28:57;7.60;;;3.92;;
65469;SDS011;52067;50.710;14.492;2023-05-29T02:31:22;6.60;;;3.90;;
65469;SDS011;52067;50.710;14.492;2023-05-29T02:33:48;7.03;;;3.20;;
65469;SDS011;52067;50.710;14.492;2023-05-29T02:36:13;5.78;;;3.10;;
65469;SDS011;52067;50.710;14.492;2023-05-29T02:38:41;5.50;;;3.17;;
65469;SDS011;52067;50.710;14.492;2023-05-29T02:41:06;7.95;;;3.33;;
65469;SDS011;52067;50.710;14.492;2023-05-29T02:43:32;5.18;;;2.90;;
65469;SDS011;52067;50.710;14.492;2023-05-29T02:45:57;8.77;;;2.90;;
65469;SDS011;52067;50.710;14.492;2023-05-29T02:48:23;4.93;;;2.65;;
65469;SDS011;52067;50.710;14.492;2023-05-29T02:50:48;6.43;;;3.08;;
65469;SDS011;52067;50.710;14.492;2023-05-29T02:53:14;7.07;;;3.50;;
65469;SDS011;52067;50.710;14.492;2023-05-29T02:55:39;6.65;;;3.13;;
65469;SDS011;52067;50.710;14.492;2023-05-29T02:58:04;5.68;;;3.25;;
65469;SDS011;52067;50.710;14.492;2023-05-29T03:00:30;6.68;;;3.00;;
65469;SDS011;52067;50.710;14.492;2023-05-29T03:02:55;4.90;;;2.92;;
65469;SDS011;52067;50.710;14.492;2023-05-29T03:05:21;5.03;;;2.80;;
65469;SDS011;52067;50.710;14.492;2023-05-29T03:07:46;7.05;;;2.85;;
65469;SDS011;52067;50.710;14.492;2023-05-29T03:10:12;6.57;;;2.70;;
65469;SDS011;52067;50.710;14.492;2023-05-29T03:12:37;5.10;;;2.70;;
65469;SDS011;52067;50.710;14.492;2023-05-29T03:15:04;4.68;;;2.20;;
65469;SDS011;52067;50.710;14.492;2023-05-29T03:17:30;5.45;;;2.60;;
65469;SDS011;52067;50.710;14.492;2023-05-29T03:19:55;5.93;;;2.80;;
65469;SDS011;52067;50.710;14.492;2023-05-29T03:22:22;3.63;;;2.42;;
65469;SDS011;52067;50.710;14.492;2023-05-29T03:24:48;5.88;;;2.65;;
65469;SDS011;52067;50.710;14.492;2023-05-29T03:27:13;7.47;;;2.85;;
65469;SDS011;52067;50.710;14.492;2023-05-29T03:29:39;5.95;;;2.80;;
65469;SDS011;52067;50.710;14.492;2023-05-29T03:32:04;6.97;;;3.40;;
65469;SDS011;52067;50.710;14.492;2023-05-29T03:34:29;6.22;;;3.28;;
65469;SDS011;52067;50.710;14.492;2023-05-29T03:36:55;12.70;;;4.25;;
65469;SDS011;52067;50.710;14.492;2023-05-29T03:39:21;7.95;;;4.47;;
65469;SDS011;52067;50.710;14.492;2023-05-29T03:41:47;8.50;;;4.32;;
65469;SDS011;52067;50.710;14.492;2023-05-29T03:44:12;10.45;;;4.57;;
65469;SDS011;52067;50.710;14.492;2023-05-29T03:46:38;8.18;;;3.95;;
65469;SDS011;52067;50.710;14.492;2023-05-29T03:49:03;7.78;;;3.67;;
65469;SDS011;52067;50.710;14.492;2023-05-29T03:51:29;5.47;;;3.42;;
65469;SDS011;52067;50.710;14.492;2023-05-29T03:53:54;8.60;;;3.58;;
65469;SDS011;52067;50.710;14.492;2023-05-29T03:56:19;7.05;;;3.60;;
65469;SDS011;52067;50.710;14.492;2023-05-29T03:58:45;7.93;;;3.40;;
65469;SDS011;52067;50.710;14.492;2023-05-29T04:01:10;9.93;;;3.22;;
65469;SDS011;52067;50.710;14.492;2023-05-29T04:03:35;6.07;;;3.33;;
65469;SDS011;52067;50.710;14.492;2023-05-29T04:06:02;8.23;;;3.50;;
65469;SDS011;52067;50.710;14.492;2023-05-29T04:08:28;9.73;;;3.38;;
65469;SDS011;52067;50.710;14.492;2023-05-29T04:10:53;6.50;;;2.85;;
65469;SDS011;52067;50.710;14.492;2023-05-29T04:13:19;6.82;;;3.60;;
65469;SDS011;52067;50.710;14.492;2023-05-29T04:15:45;11.88;;;4.10;;
65469;SDS011;52067;50.710;14.492;2023-05-29T04:18:11;6.95;;;3.80;;
65469;SDS011;52067;50.710;14.492;2023-05-29T04:20:36;12.75;;;3.83;;
65469;SDS011;52067;50.710;14.492;2023-05-29T04:23:01;14.40;;;5.95;;
65469;SDS011;52067;50.710;14.492;2023-05-29T04:25:27;11.70;;;5.72;;
65469;SDS011;52067;50.710;14.492;2023-05-29T04:27:52;23.10;;;8.85;;
65469;SDS011;52067;50.710;14.492;2023-05-29T04:30:18;25.92;;;9.95;;
65469;SDS011;52067;50.710;14.492;2023-05-29T04:32:43;26.98;;;10.68;;
65469;SDS011;52067;50.710;14.492;2023-05-29T04:35:09;16.02;;;5.53;;
65469;SDS011;52067;50.710;14.492;2023-05-29T04:37:34;10.38;;;4.97;;
65469;SDS011;52067;50.710;14.492;2023-05-29T04:40:07;9.27;;;4.35;;
65469;SDS011;52067;50.710;14.492;2023-05-29T04:42:34;7.97;;;4.05;;
65469;SDS011;52067;50.710;14.492;2023-05-29T04:45:04;7.45;;;3.72;;
65469;SDS011;52067;50.710;14.492;2023-05-29T04:47:30;6.53;;;3.58;;
65469;SDS011;52067;50.710;14.492;2023-05-29T04:49:58;7.85;;;3.35;;
65469;SDS011;52067;50.710;14.492;2023-05-29T04:52:24;5.88;;;3.65;;
65469;SDS011;52067;50.710;14.492;2023-05-29T04:54:50;11.15;;;3.20;;
65469;SDS011;52067;50.710;14.492;2023-05-29T04:57:16;6.70;;;3.42;;
65469;SDS011;52067;50.710;14.492;2023-05-29T04:59:41;7.93;;;3.55;;
65469;SDS011;52067;50.710;14.492;2023-05-29T05:02:06;6.93;;;3.20;;
65469;SDS011;52067;50.710;14.492;2023-05-29T05:04:32;5.45;;;3.13;;
65469;SDS011;52067;50.710;14.492;2023-05-29T05:06:57;5.25;;;3.42;;
65469;SDS011;52067;50.710;14.492;2023-05-29T05:09:23;8.95;;;3.67;;
65469;SDS011;52067;50.710;14.492;2023-05-29T05:11:49;7.20;;;3.35;;
65469;SDS011;52067;50.710;14.492;2023-05-29T05:14:14;5.65;;;3.28;;
65469;SDS011;52067;50.710;14.492;2023-05-29T05:16:39;7.28;;;3.50;;
65469;SDS011;52067;50.710;14.492;2023-05-29T05:19:05;6.60;;;3.22;;
65469;SDS011;52067;50.710;14.492;2023-05-29T05:21:30;4.80;;;3.03;;
65469;SDS011;52067;50.710;14.492;2023-05-29T05:23:57;7.55;;;3.22;;
65469;SDS011;52067;50.710;14.492;2023-05-29T05:26:23;5.75;;;3.13;;
65469;SDS011;52067;50.710;14.492;2023-05-29T05:28:48;7.28;;;3.33;;
65469;SDS011;52067;50.710;14.492;2023-05-29T05:31:14;5.18;;;3.00;;
65469;SDS011;52067;50.710;14.492;2023-05-29T05:33:39;4.53;;;3.00;;
65469;SDS011;52067;50.710;14.492;2023-05-29T05:36:05;7.68;;;3.25;;
65469;SDS011;52067;50.710;14.492;2023-05-29T05:38:31;4.90;;;2.72;;
65469;SDS011;52067;50.710;14.492;2023-05-29T05:40:57;5.95;;;3.13;;
65469;SDS011;52067;50.710;14.492;2023-05-29T05:43:22;7.72;;;3.05;;
65469;SDS011;52067;50.710;14.492;2023-05-29T05:45:48;6.47;;;3.13;;
65469;SDS011;52067;50.710;14.492;2023-05-29T05:48:13;6.68;;;3.10;;
65469;SDS011;52067;50.710;14.492;2023-05-29T05:50:38;5.18;;;3.13;;
65469;SDS011;52067;50.710;14.492;2023-05-29T05:53:04;4.85;;;3.20;;
65469;SDS011;52067;50.710;14.492;2023-05-29T05:55:29;5.72;;;2.92;;
65469;SDS011;52067;50.710;14.492;2023-05-29T05:57:55;6.03;;;3.42;;
65469;SDS011;52067;50.710;14.492;2023-05-29T06:00:22;6.32;;;3.50;;
65469;SDS011;52067;50.710;14.492;2023-05-29T06:02:48;7.25;;;3.20;;
65469;SDS011;52067;50.710;14.492;2023-05-29T06:05:13;8.60;;;3.53;;
65469;SDS011;52067;50.710;14.492;2023-05-29T06:07:39;5.65;;;2.90;;
65469;SDS011;52067;50.710;14.492;2023-05-29T06:10:05;6.45;;;3.05;;
65469;SDS011;52067;50.710;14.492;2023-05-29T06:12:31;5.28;;;2.90;;
65469;SDS011;52067;50.710;14.492;2023-05-29T06:14:56;4.68;;;2.83;;
65469;SDS011;52067;50.710;14.492;2023-05-29T06:17:22;10.10;;;3.13;;
65469;SDS011;52067;50.710;14.492;2023-05-29T06:19:48;5.18;;;2.58;;
65469;SDS011;52067;50.710;14.492;2023-05-29T06:22:14;5.13;;;2.55;;
65469;SDS011;52067;50.710;14.492;2023-05-29T06:24:40;6.25;;;2.65;;
65469;SDS011;52067;50.710;14.492;2023-05-29T06:27:05;7.90;;;2.55;;
65469;SDS011;52067;50.710;14.492;2023-05-29T06:29:31;3.78;;;2.50;;
65469;SDS011;52067;50.710;14.492;2023-05-29T06:31:57;4.72;;;2.60;;
65469;SDS011;52067;50.710;14.492;2023-05-29T06:34:22;5.97;;;2.55;;
65469;SDS011;52067;50.710;14.492;2023-05-29T06:36:48;5.32;;;2.38;;
65469;SDS011;52067;50.710;14.492;2023-05-29T06:39:13;5.20;;;2.60;;
65469;SDS011;52067;50.710;14.492;2023-05-29T06:41:39;4.78;;;2.20;;
65469;SDS011;52067;50.710;14.492;2023-05-29T06:44:04;14.43;;;2.92;;
65469;SDS011;52067;50.710;14.492;2023-05-29T06:46:30;6.57;;;2.53;;
65469;SDS011;52067;50.710;14.492;2023-05-29T06:48:55;5.13;;;1.98;;
65469;SDS011;52067;50.710;14.492;2023-05-29T06:51:21;5.68;;;2.40;;
65469;SDS011;52067;50.710;14.492;2023-05-29T06:53:46;5.57;;;2.67;;
65469;SDS011;52067;50.710;14.492;2023-05-29T06:56:11;5.60;;;2.33;;
65469;SDS011;52067;50.710;14.492;2023-05-29T06:58:37;6.07;;;2.40;;
65469;SDS011;52067;50.710;14.492;2023-05-29T07:01:02;5.25;;;2.25;;
65469;SDS011;52067;50.710;14.492;2023-05-29T07:03:28;4.90;;;2.08;;
65469;SDS011;52067;50.710;14.492;2023-05-29T07:05:54;6.53;;;2.20;;
65469;SDS011;52067;50.710;14.492;2023-05-29T07:08:19;6.07;;;2.50;;
65469;SDS011;52067;50.710;14.492;2023-05-29T07:10:45;7.63;;;2.17;;
65469;SDS011;52067;50.710;14.492;2023-05-29T07:13:17;4.85;;;2.22;;
65469;SDS011;52067;50.710;14.492;2023-05-29T07:15:43;5.03;;;2.15;;
65469;SDS011;52067;50.710;14.492;2023-05-29T07:18:09;7.70;;;2.50;;
65469;SDS011;52067;50.710;14.492;2023-05-29T07:20:35;5.03;;;2.45;;
65469;SDS011;52067;50.710;14.492;2023-05-29T07:23:01;11.70;;;2.40;;
65469;SDS011;52067;50.710;14.492;2023-05-29T07:25:27;4.43;;;2.30;;
65469;SDS011;52067;50.710;14.492;2023-05-29T07:27:52;5.18;;;2.28;;
65469;SDS011;52067;50.710;14.492;2023-05-29T07:30:18;6.35;;;2.63;;
65469;SDS011;52067;50.710;14.492;2023-05-29T07:32:43;7.38;;;2.40;;
65469;SDS011;52067;50.710;14.492;2023-05-29T07:35:09;4.50;;;2.38;;
65469;SDS011;52067;50.710;14.492;2023-05-29T07:37:34;8.85;;;2.20;;
65469;SDS011;52067;50.710;14.492;2023-05-29T07:40:01;7.05;;;2.05;;
65469;SDS011;52067;50.710;14.492;2023-05-29T07:42:30;4.53;;;2.03;;
65469;SDS011;52067;50.710;14.492;2023-05-29T07:44:56;5.75;;;2.20;;
65469;SDS011;52067;50.710;14.492;2023-05-29T07:47:22;8.80;;;2.05;;
65469;SDS011;52067;50.710;14.492;2023-05-29T07:49:47;9.73;;;3.10;;
65469;SDS011;52067;50.710;14.492;2023-05-29T07:52:12;7.78;;;1.92;;
65469;SDS011;52067;50.710;14.492;2023-05-29T07:54:38;5.20;;;2.00;;
65469;SDS011;52067;50.710;14.492;2023-05-29T07:57:03;6.18;;;1.83;;
65469;SDS011;52067;50.710;14.492;2023-05-29T07:59:34;3.88;;;1.92;;
65469;SDS011;52067;50.710;14.492;2023-05-29T08:02:00;5.88;;;2.00;;
65469;SDS011;52067;50.710;14.492;2023-05-29T08:04:27;4.78;;;1.80;;
65469;SDS011;52067;50.710;14.492;2023-05-29T08:06:53;6.30;;;1.95;;
65469;SDS011;52067;50.710;14.492;2023-05-29T08:09:19;4.63;;;1.90;;
65469;SDS011;52067;50.710;14.492;2023-05-29T08:11:45;4.53;;;1.88;;
65469;SDS011;52067;50.710;14.492;2023-05-29T08:14:11;5.20;;;1.95;;
65469;SDS011;52067;50.710;14.492;2023-05-29T08:16:37;6.72;;;2.38;;
65469;SDS011;52067;50.710;14.492;2023-05-29T08:19:03;6.25;;;1.98;;
65469;SDS011;52067;50.710;14.492;2023-05-29T08:21:29;13.63;;;2.55;;
65469;SDS011;52067;50.710;14.492;2023-05-29T08:23:56;6.18;;;2.50;;
65469;SDS011;52067;50.710;14.492;2023-05-29T08:26:22;6.47;;;1.92;;
65469;SDS011;52067;50.710;14.492;2023-05-29T08:28:47;9.65;;;3.00;;
65469;SDS011;52067;50.710;14.492;2023-05-29T08:31:13;4.00;;;2.08;;
65469;SDS011;52067;50.710;14.492;2023-05-29T08:33:38;5.78;;;2.13;;
65469;SDS011;52067;50.710;14.492;2023-05-29T08:36:04;4.85;;;2.17;;
65469;SDS011;52067;50.710;14.492;2023-05-29T08:38:29;4.15;;;2.10;;
65469;SDS011;52067;50.710;14.492;2023-05-29T08:40:55;6.28;;;2.20;;
65469;SDS011;52067;50.710;14.492;2023-05-29T08:43:22;5.10;;;2.33;;
65469;SDS011;52067;50.710;14.492;2023-05-29T08:45:55;3.05;;;1.70;;
65469;SDS011;52067;50.710;14.492;2023-05-29T08:48:30;5.05;;;1.90;;
65469;SDS011;52067;50.710;14.492;2023-05-29T08:50:56;6.80;;;2.00;;
65469;SDS011;52067;50.710;14.492;2023-05-29T08:53:23;5.95;;;2.25;;
65469;SDS011;52067;50.710;14.492;2023-05-29T08:55:49;6.45;;;2.10;;
65469;SDS011;52067;50.710;14.492;2023-05-29T08:58:17;3.85;;;1.63;;
65469;SDS011;52067;50.710;14.492;2023-05-29T09:00:49;7.25;;;1.88;;
65469;SDS011;52067;50.710;14.492;2023-05-29T09:03:14;6.18;;;1.92;;
65469;SDS011;52067;50.710;14.492;2023-05-29T09:05:40;4.55;;;1.80;;
65469;SDS011;52067;50.710;14.492;2023-05-29T09:08:06;4.93;;;1.80;;
65469;SDS011;52067;50.710;14.492;2023-05-29T09:10:38;5.57;;;2.40;;
65469;SDS011;52067;50.710;14.492;2023-05-29T09:13:05;6.80;;;1.90;;
65469;SDS011;52067;50.710;14.492;2023-05-29T09:15:30;3.63;;;1.85;;
65469;SDS011;52067;50.710;14.492;2023-05-29T09:17:56;5.68;;;2.03;;
65469;SDS011;52067;50.710;14.492;2023-05-29T09:20:22;7.25;;;2.17;;
65469;SDS011;52067;50.710;14.492;2023-05-29T09:23:08;4.28;;;2.08;;
65469;SDS011;52067;50.710;14.492;2023-05-29T09:25:35;11.50;;;2.10;;
65469;SDS011;52067;50.710;14.492;2023-05-29T09:28:05;3.45;;;2.17;;
65469;SDS011;52067;50.710;14.492;2023-05-29T09:32:59;3.83;;;1.98;;
65469;SDS011;52067;50.710;14.492;2023-05-29T09:35:25;7.80;;;2.38;;
65469;SDS011;52067;50.710;14.492;2023-05-29T09:37:52;4.22;;;2.00;;
65469;SDS011;52067;50.710;14.492;2023-05-29T09:40:17;5.65;;;1.85;;
65469;SDS011;52067;50.710;14.492;2023-05-29T09:42:43;11.80;;;2.08;;
65469;SDS011;52067;50.710;14.492;2023-05-29T09:45:08;6.28;;;1.83;;
65469;SDS011;52067;50.710;14.492;2023-05-29T09:47:34;7.82;;;2.30;;
65469;SDS011;52067;50.710;14.492;2023-05-29T09:50:00;4.13;;;2.08;;
65469;SDS011;52067;50.710;14.492;2023-05-29T09:52:26;4.38;;;1.90;;
65469;SDS011;52067;50.710;14.492;2023-05-29T09:54:55;2.75;;;1.70;;
65469;SDS011;52067;50.710;14.492;2023-05-29T09:57:21;3.90;;;1.60;;
65469;SDS011;52067;50.710;14.492;2023-05-29T09:59:48;4.80;;;1.90;;
65469;SDS011;52067;50.710;14.492;2023-05-29T10:02:16;6.43;;;1.80;;
65469;SDS011;52067;50.710;14.492;2023-05-29T10:04:43;6.43;;;1.73;;
65469;SDS011;52067;50.710;14.492;2023-05-29T10:10:03;8.07;;;2.40;;
65469;SDS011;52067;50.710;14.492;2023-05-29T10:12:34;7.38;;;2.10;;
65469;SDS011;52067;50.710;14.492;2023-05-29T10:15:02;4.65;;;2.00;;
65469;SDS011;52067;50.710;14.492;2023-05-29T10:17:31;8.55;;;2.55;;
65469;SDS011;52067;50.710;14.492;2023-05-29T10:19:58;3.95;;;1.70;;
65469;SDS011;52067;50.710;14.492;2023-05-29T10:22:27;6.05;;;1.80;;
65469;SDS011;52067;50.710;14.492;2023-05-29T10:24:54;5.45;;;2.13;;
65469;SDS011;52067;50.710;14.492;2023-05-29T10:27:21;7.10;;;1.98;;
65469;SDS011;52067;50.710;14.492;2023-05-29T10:29:55;6.82;;;2.10;;
65469;SDS011;52067;50.710;14.492;2023-05-29T10:32:50;5.10;;;2.25;;
65469;SDS011;52067;50.710;14.492;2023-05-29T10:35:27;3.70;;;2.05;;
65469;SDS011;52067;50.710;14.492;2023-05-29T10:38:02;10.32;;;2.05;;
65469;SDS011;52067;50.710;14.492;2023-05-29T10:40:36;3.88;;;2.00;;
65469;SDS011;52067;50.710;14.492;2023-05-29T10:43:01;3.58;;;2.00;;
65469;SDS011;52067;50.710;14.492;2023-05-29T10:47:56;4.45;;;2.40;;
65469;SDS011;52067;50.710;14.492;2023-05-29T10:50:45;3.88;;;2.10;;
65469;SDS011;52067;50.710;14.492;2023-05-29T10:53:14;4.05;;;2.00;;
65469;SDS011;52067;50.710;14.492;2023-05-29T10:55:48;5.50;;;2.13;;
65469;SDS011;52067;50.710;14.492;2023-05-29T10:58:19;5.38;;;2.25;;
65469;SDS011;52067;50.710;14.492;2023-05-29T11:00:46;6.25;;;2.50;;
65469;SDS011;52067;50.710;14.492;2023-05-29T11:03:20;3.67;;;1.98;;
65469;SDS011;52067;50.710;14.492;2023-05-29T11:06:04;5.45;;;2.15;;
65469;SDS011;52067;50.710;14.492;2023-05-29T11:09:25;4.20;;;2.00;;
65469;SDS011;52067;50.710;14.492;2023-05-29T11:11:40;5.03;;;2.30;;
65469;SDS011;52067;50.710;14.492;2023-05-29T11:14:07;3.33;;;1.80;;
65469;SDS011;52067;50.710;14.492;2023-05-29T11:18:58;4.00;;;2.05;;
65469;SDS011;52067;50.710;14.492;2023-05-29T11:24:05;6.85;;;2.40;;
65469;SDS011;52067;50.710;14.492;2023-05-29T11:26:31;13.80;;;2.92;;
65469;SDS011;52067;50.710;14.492;2023-05-29T11:28:58;8.52;;;2.50;;
65469;SDS011;52067;50.710;14.492;2023-05-29T11:31:25;5.88;;;2.60;;
65469;SDS011;52067;50.710;14.492;2023-05-29T11:33:52;5.20;;;2.58;;
65469;SDS011;52067;50.710;14.492;2023-05-29T11:36:23;7.15;;;2.40;;
65469;SDS011;52067;50.710;14.492;2023-05-29T11:38:48;6.07;;;2.47;;
65469;SDS011;52067;50.710;14.492;2023-05-29T11:41:16;7.95;;;2.40;;
65469;SDS011;52067;50.710;14.492;2023-05-29T11:43:42;3.90;;;2.25;;
65469;SDS011;52067;50.710;14.492;2023-05-29T11:46:17;55.25;;;3.55;;
65469;SDS011;52067;50.710;14.492;2023-05-29T11:48:46;4.38;;;2.70;;
65469;SDS011;52067;50.710;14.492;2023-05-29T11:51:13;5.82;;;2.40;;
65469;SDS011;52067;50.710;14.492;2023-05-29T11:53:41;6.18;;;2.38;;
65469;SDS011;52067;50.710;14.492;2023-05-29T11:56:08;5.22;;;2.50;;
65469;SDS011;52067;50.710;14.492;2023-05-29T11:58:39;7.20;;;2.40;;
65469;SDS011;52067;50.710;14.492;2023-05-29T12:01:07;9.30;;;2.40;;
65469;SDS011;52067;50.710;14.492;2023-05-29T12:03:42;10.43;;;2.80;;
65469;SDS011;52067;50.710;14.492;2023-05-29T12:06:08;3.20;;;2.20;;
65469;SDS011;52067;50.710;14.492;2023-05-29T12:08:35;7.47;;;2.50;;
65469;SDS011;52067;50.710;14.492;2023-05-29T12:11:01;3.88;;;2.35;;
65469;SDS011;52067;50.710;14.492;2023-05-29T12:13:27;5.47;;;2.53;;
65469;SDS011;52067;50.710;14.492;2023-05-29T12:15:54;5.38;;;2.40;;
65469;SDS011;52067;50.710;14.492;2023-05-29T12:18:26;3.55;;;2.08;;
65469;SDS011;52067;50.710;14.492;2023-05-29T12:20:56;6.10;;;2.30;;
65469;SDS011;52067;50.710;14.492;2023-05-29T12:23:23;6.47;;;2.55;;
65469;SDS011;52067;50.710;14.492;2023-05-29T12:25:50;8.40;;;2.30;;
65469;SDS011;52067;50.710;14.492;2023-05-29T12:28:17;6.35;;;2.40;;
65469;SDS011;52067;50.710;14.492;2023-05-29T12:30:46;9.27;;;2.40;;
65469;SDS011;52067;50.710;14.492;2023-05-29T12:33:33;5.97;;;2.28;;
65469;SDS011;52067;50.710;14.492;2023-05-29T12:36:05;5.53;;;2.33;;
65469;SDS011;52067;50.710;14.492;2023-05-29T12:38:32;6.30;;;2.45;;
65469;SDS011;52067;50.710;14.492;2023-05-29T12:40:58;6.50;;;2.47;;
65469;SDS011;52067;50.710;14.492;2023-05-29T12:43:24;7.90;;;2.30;;
65469;SDS011;52067;50.710;14.492;2023-05-29T12:45:55;4.00;;;2.40;;
65469;SDS011;52067;50.710;14.492;2023-05-29T12:48:25;3.65;;;2.33;;
65469;SDS011;52067;50.710;14.492;2023-05-29T12:50:52;5.57;;;2.60;;
65469;SDS011;52067;50.710;14.492;2023-05-29T12:53:17;4.78;;;2.20;;
65469;SDS011;52067;50.710;14.492;2023-05-29T12:55:43;5.32;;;2.30;;
65469;SDS011;52067;50.710;14.492;2023-05-29T12:58:10;6.20;;;2.65;;
65469;SDS011;52067;50.710;14.492;2023-05-29T13:00:38;5.75;;;2.60;;
65469;SDS011;52067;50.710;14.492;2023-05-29T13:03:05;4.43;;;2.25;;
65469;SDS011;52067;50.710;14.492;2023-05-29T13:05:31;7.78;;;2.60;;
65469;SDS011;52067;50.710;14.492;2023-05-29T13:07:57;4.05;;;2.28;;
65469;SDS011;52067;50.710;14.492;2023-05-29T13:10:23;5.53;;;2.53;;
65469;SDS011;52067;50.710;14.492;2023-05-29T13:12:49;5.95;;;3.28;;
65469;SDS011;52067;50.710;14.492;2023-05-29T13:15:19;6.43;;;2.67;;
65469;SDS011;52067;50.710;14.492;2023-05-29T13:17:44;7.20;;;2.58;;
65469;SDS011;52067;50.710;14.492;2023-05-29T13:20:10;6.63;;;2.58;;
65469;SDS011;52067;50.710;14.492;2023-05-29T13:22:37;4.65;;;2.65;;
65469;SDS011;52067;50.710;14.492;2023-05-29T13:25:04;3.80;;;2.33;;
65469;SDS011;52067;50.710;14.492;2023-05-29T13:27:31;10.43;;;2.80;;
65469;SDS011;52067;50.710;14.492;2023-05-29T13:30:17;4.07;;;2.33;;
65469;SDS011;52067;50.710;14.492;2023-05-29T13:32:43;4.45;;;2.55;;
65469;SDS011;52067;50.710;14.492;2023-05-29T13:35:09;5.30;;;2.83;;
65469;SDS011;52067;50.710;14.492;2023-05-29T13:37:37;9.65;;;2.60;;
65469;SDS011;52067;50.710;14.492;2023-05-29T13:40:04;6.55;;;2.83;;
65469;SDS011;52067;50.710;14.492;2023-05-29T13:42:30;7.03;;;2.50;;
65469;SDS011;52067;50.710;14.492;2023-05-29T13:44:56;6.30;;;2.83;;
65469;SDS011;52067;50.710;14.492;2023-05-29T13:47:21;3.85;;;2.65;;
65469;SDS011;52067;50.710;14.492;2023-05-29T13:49:47;6.78;;;2.60;;
65469;SDS011;52067;50.710;14.492;2023-05-29T13:52:12;9.88;;;2.65;;
65469;SDS011;52067;50.710;14.492;2023-05-29T13:54:38;4.70;;;2.50;;
65469;SDS011;52067;50.710;14.492;2023-05-29T13:57:04;5.63;;;2.60;;
65469;SDS011;52067;50.710;14.492;2023-05-29T13:59:31;6.93;;;2.80;;
65469;SDS011;52067;50.710;14.492;2023-05-29T14:01:57;4.05;;;2.30;;
65469;SDS011;52067;50.710;14.492;2023-05-29T14:04:23;5.03;;;2.55;;
65469;SDS011;52067;50.710;14.492;2023-05-29T14:06:48;7.90;;;2.70;;
65469;SDS011;52067;50.710;14.492;2023-05-29T14:09:14;5.03;;;2.67;;
65469;SDS011;52067;50.710;14.492;2023-05-29T14:11:40;9.38;;;3.10;;
65469;SDS011;52067;50.710;14.492;2023-05-29T14:14:05;4.15;;;2.90;;
65469;SDS011;52067;50.710;14.492;2023-05-29T14:16:32;5.50;;;2.63;;
65469;SDS011;52067;50.710;14.492;2023-05-29T14:18:57;7.45;;;3.00;;
65469;SDS011;52067;50.710;14.492;2023-05-29T14:21:23;6.95;;;2.50;;
65469;SDS011;52067;50.710;14.492;2023-05-29T14:23:49;8.82;;;2.67;;
65469;SDS011;52067;50.710;14.492;2023-05-29T14:26:14;4.97;;;2.30;;
65469;SDS011;52067;50.710;14.492;2023-05-29T14:28:39;4.97;;;2.42;;
65469;SDS011;52067;50.710;14.492;2023-05-29T14:31:05;5.22;;;2.63;;
65469;SDS011;52067;50.710;14.492;2023-05-29T14:33:31;8.20;;;2.30;;
65469;SDS011;52067;50.710;14.492;2023-05-29T14:35:57;5.63;;;2.33;;
65469;SDS011;52067;50.710;14.492;2023-05-29T14:38:23;5.72;;;2.58;;
65469;SDS011;52067;50.710;14.492;2023-05-29T14:40:49;5.68;;;2.53;;
65469;SDS011;52067;50.710;14.492;2023-05-29T14:43:15;5.30;;;2.85;;
65469;SDS011;52067;50.710;14.492;2023-05-29T14:45:40;5.05;;;2.90;;
65469;SDS011;52067;50.710;14.492;2023-05-29T14:48:06;6.35;;;2.90;;
65469;SDS011;52067;50.710;14.492;2023-05-29T14:50:31;5.03;;;3.00;;